Jeppesen Maersk — OWTW2 — position and weather

sailwx.info

Track history (hours):
 
Tides and Currents Weather Stations Pressure Air Temp Water Temp Dewpoint Dewpoint Depression Visibility Wind Speed Wind Dir Waves Ship Positions

Jeppesen Maersk

Last reported at 2014-Sep-09 23:06 UTC. Time now 2014-Sep-19 11:52 UTC.
Position S 36°10' E 174°59'.
Warning: this ship's position is 9 days out of date.

Type: Cargo ship. MMSI: 219953000.

Date/timePositionNaut miles runAvg speedWind from/ knotsBaromVisibWave heightAir tempDewpointWater temp
2014-Sep-09 23:06S 36°10' E 174°59'917.1
2014-Sep-09 22:33S 36°19' E 174°59'1717.0
2014-Sep-09 21:33S 36°36' E 174°59'1414.0
2014-Sep-09 20:33S 36°48' E 174°49'3 3.4
2014-Sep-09 19:33S 36°51' E 174°47'0 0.0
2014-Sep-09 18:33S 36°51' E 174°47'0 0.0
2014-Sep-09 17:30S 36°51' E 174°47'0 0.0
2014-Sep-09 16:24S 36°51' E 174°47'0 0.0
2014-Sep-09 15:30S 36°51' E 174°47'0 0.0
2014-Sep-09 14:30S 36°51' E 174°47'0 0.0
2014-Sep-09 13:24S 36°51' E 174°47'0 0.0
2014-Sep-09 12:30S 36°51' E 174°47'0 0.0
2014-Sep-09 11:30S 36°51' E 174°47'0 0.0
2014-Sep-09 10:30S 36°51' E 174°47'0 0.0
2014-Sep-09 09:30S 36°51' E 174°47'1 0.6
2014-Sep-09 08:33S 36°50' E 174°48'7 7.3
2014-Sep-09 07:33S 36°44' E 174°51'3 3.3
2014-Sep-09 06:33S 36°41' E 174°53'3 3.0
2014-Sep-09 05:33S 36°38' E 174°55'5 4.8
2014-Sep-09 04:33S 36°36' E 175°00'1110.6
2014-Sep-09 03:33S 36°29' E 175°11'  
Track history (hours):
 
Tides and Currents Weather Stations Pressure Air Temp Water Temp Dewpoint Dewpoint Depression Visibility Wind Speed Wind Dir Waves Ship Positions

Jeppesen Maersk

Last reported at 2014-Sep-09 23:06 UTC. Time now 2014-Sep-19 11:52 UTC.
Position S 36°10' E 174°59'.
Warning: this ship's position is 9 days out of date.

Type: Cargo ship. MMSI: 219953000.

Date/timePositionNaut miles runAvg speedWind from/ knotsBaromVisibWave heightAir tempDewpointWater temp
2014-Sep-09 23:06S 36°10' E 174°59'917.1
2014-Sep-09 22:33S 36°19' E 174°59'1717.0
2014-Sep-09 21:33S 36°36' E 174°59'1414.0
2014-Sep-09 20:33S 36°48' E 174°49'3 3.4
2014-Sep-09 19:33S 36°51' E 174°47'0 0.0
2014-Sep-09 18:33S 36°51' E 174°47'0 0.0
2014-Sep-09 17:30S 36°51' E 174°47'0 0.0
2014-Sep-09 16:24S 36°51' E 174°47'0 0.0
2014-Sep-09 15:30S 36°51' E 174°47'0 0.0
2014-Sep-09 14:30S 36°51' E 174°47'0 0.0
2014-Sep-09 13:24S 36°51' E 174°47'0 0.0
2014-Sep-09 12:30S 36°51' E 174°47'0 0.0
2014-Sep-09 11:30S 36°51' E 174°47'0 0.0
2014-Sep-09 10:30S 36°51' E 174°47'0 0.0
2014-Sep-09 09:30S 36°51' E 174°47'1 0.6
2014-Sep-09 08:33S 36°50' E 174°48'7 7.3
2014-Sep-09 07:33S 36°44' E 174°51'3 3.3
2014-Sep-09 06:33S 36°41' E 174°53'3 3.0
2014-Sep-09 05:33S 36°38' E 174°55'5 4.8
2014-Sep-09 04:33S 36°36' E 175°00'1110.6
2014-Sep-09 03:33S 36°29' E 175°11'  

Dump ship's entire track history